sensor_id;sensor_type;location;lat;lon;timestamp;P1;durP1;ratioP1;P2;durP2;ratioP2
63965;SDS011;50151;52.030;5.350;2023-07-30T09:32:25;12.82;;;2.38;;
63965;SDS011;50151;52.030;5.350;2023-07-30T09:34:53;11.82;;;2.28;;
63965;SDS011;50151;52.030;5.350;2023-07-30T09:37:21;9.88;;;1.88;;
63965;SDS011;50151;52.030;5.350;2023-07-30T09:39:48;11.75;;;2.13;;
63965;SDS011;50151;52.030;5.350;2023-07-30T09:42:15;9.63;;;1.95;;
63965;SDS011;50151;52.030;5.350;2023-07-30T09:44:41;14.00;;;2.80;;
63965;SDS011;50151;52.030;5.350;2023-07-30T09:47:09;14.70;;;2.20;;
63965;SDS011;50151;52.030;5.350;2023-07-30T09:49:37;11.75;;;1.98;;
63965;SDS011;50151;52.030;5.350;2023-07-30T09:52:04;13.68;;;2.50;;
63965;SDS011;50151;52.030;5.350;2023-07-30T09:54:32;10.98;;;1.75;;
63965;SDS011;50151;52.030;5.350;2023-07-30T09:56:59;12.13;;;1.98;;
63965;SDS011;50151;52.030;5.350;2023-07-30T09:59:26;11.20;;;1.90;;
63965;SDS011;50151;52.030;5.350;2023-07-30T10:01:53;11.38;;;1.65;;
63965;SDS011;50151;52.030;5.350;2023-07-30T10:04:22;11.85;;;1.77;;
63965;SDS011;50151;52.030;5.350;2023-07-30T10:06:51;12.68;;;2.17;;
63965;SDS011;50151;52.030;5.350;2023-07-30T10:09:23;11.70;;;2.15;;
63965;SDS011;50151;52.030;5.350;2023-07-30T10:11:53;7.25;;;1.75;;
63965;SDS011;50151;52.030;5.350;2023-07-30T10:14:21;10.57;;;1.73;;
63965;SDS011;50151;52.030;5.350;2023-07-30T10:16:50;9.13;;;1.98;;
63965;SDS011;50151;52.030;5.350;2023-07-30T10:19:22;8.02;;;1.70;;
63965;SDS011;50151;52.030;5.350;2023-07-30T10:21:49;8.50;;;1.77;;
63965;SDS011;50151;52.030;5.350;2023-07-30T10:24:17;12.10;;;1.83;;
63965;SDS011;50151;52.030;5.350;2023-07-30T10:26:43;13.20;;;2.15;;
63965;SDS011;50151;52.030;5.350;2023-07-30T10:29:17;8.20;;;1.80;;
63965;SDS011;50151;52.030;5.350;2023-07-30T10:34:22;8.10;;;1.58;;
63965;SDS011;50151;52.030;5.350;2023-07-30T10:36:55;9.43;;;1.77;;
63965;SDS011;50151;52.030;5.350;2023-07-30T10:39:26;9.23;;;1.98;;
63965;SDS011;50151;52.030;5.350;2023-07-30T10:41:55;7.20;;;1.00;;
63965;SDS011;50151;52.030;5.350;2023-07-30T10:44:26;7.47;;;1.38;;
63965;SDS011;50151;52.030;5.350;2023-07-30T10:46:55;8.48;;;1.50;;
63965;SDS011;50151;52.030;5.350;2023-07-30T10:49:23;5.57;;;1.35;;
63965;SDS011;50151;52.030;5.350;2023-07-30T10:51:51;8.85;;;1.50;;
63965;SDS011;50151;52.030;5.350;2023-07-30T10:54:21;12.02;;;1.90;;
63965;SDS011;50151;52.030;5.350;2023-07-30T10:56:48;5.22;;;1.05;;
63965;SDS011;50151;52.030;5.350;2023-07-30T10:59:15;5.22;;;1.42;;
63965;SDS011;50151;52.030;5.350;2023-07-30T11:01:45;9.20;;;1.50;;
63965;SDS011;50151;52.030;5.350;2023-07-30T11:04:16;6.93;;;1.33;;
63965;SDS011;50151;52.030;5.350;2023-07-30T11:06:49;7.70;;;1.45;;
63965;SDS011;50151;52.030;5.350;2023-07-30T11:09:26;8.98;;;1.58;;
63965;SDS011;50151;52.030;5.350;2023-07-30T11:11:55;6.32;;;1.45;;
63965;SDS011;50151;52.030;5.350;2023-07-30T11:14:22;6.20;;;1.30;;
63965;SDS011;50151;52.030;5.350;2023-07-30T11:16:53;5.75;;;1.40;;
63965;SDS011;50151;52.030;5.350;2023-07-30T11:19:24;7.82;;;1.75;;
63965;SDS011;50151;52.030;5.350;2023-07-30T11:21:52;4.45;;;1.00;;
63965;SDS011;50151;52.030;5.350;2023-07-30T11:24:20;6.60;;;1.23;;
63965;SDS011;50151;52.030;5.350;2023-07-30T11:26:57;6.40;;;1.13;;
63965;SDS011;50151;52.030;5.350;2023-07-30T11:29:25;2.95;;;0.75;;
63965;SDS011;50151;52.030;5.350;2023-07-30T11:32:04;9.43;;;1.58;;
63965;SDS011;50151;52.030;5.350;2023-07-30T11:34:31;11.30;;;1.55;;
63965;SDS011;50151;52.030;5.350;2023-07-30T11:37:02;6.15;;;1.10;;
63965;SDS011;50151;52.030;5.350;2023-07-30T11:39:30;3.83;;;1.00;;
63965;SDS011;50151;52.030;5.350;2023-07-30T11:41:57;5.63;;;1.10;;
63965;SDS011;50151;52.030;5.350;2023-07-30T11:44:36;6.53;;;1.05;;
63965;SDS011;50151;52.030;5.350;2023-07-30T11:47:07;6.07;;;0.95;;
63965;SDS011;50151;52.030;5.350;2023-07-30T11:49:35;3.42;;;0.68;;
63965;SDS011;50151;52.030;5.350;2023-07-30T11:52:06;5.88;;;1.00;;
63965;SDS011;50151;52.030;5.350;2023-07-30T11:54:34;10.45;;;1.52;;
63965;SDS011;50151;52.030;5.350;2023-07-30T11:57:02;6.88;;;1.00;;
63965;SDS011;50151;52.030;5.350;2023-07-30T11:59:30;6.57;;;1.10;;
63965;SDS011;50151;52.030;5.350;2023-07-30T12:01:57;4.63;;;1.08;;
63965;SDS011;50151;52.030;5.350;2023-07-30T12:04:24;3.10;;;0.70;;
63965;SDS011;50151;52.030;5.350;2023-07-30T12:06:51;4.55;;;1.05;;
63965;SDS011;50151;52.030;5.350;2023-07-30T12:09:22;4.20;;;0.85;;
63965;SDS011;50151;52.030;5.350;2023-07-30T12:11:52;6.13;;;1.30;;
63965;SDS011;50151;52.030;5.350;2023-07-30T12:14:25;8.07;;;0.95;;
63965;SDS011;50151;52.030;5.350;2023-07-30T12:16:57;8.48;;;1.40;;
63965;SDS011;50151;52.030;5.350;2023-07-30T12:19:24;8.82;;;1.02;;
63965;SDS011;50151;52.030;5.350;2023-07-30T12:21:51;10.77;;;1.45;;
63965;SDS011;50151;52.030;5.350;2023-07-30T12:24:18;5.28;;;0.98;;
63965;SDS011;50151;52.030;5.350;2023-07-30T12:26:45;6.93;;;1.10;;
63965;SDS011;50151;52.030;5.350;2023-07-30T12:29:12;8.60;;;1.17;;
63965;SDS011;50151;52.030;5.350;2023-07-30T12:31:38;5.32;;;1.30;;
63965;SDS011;50151;52.030;5.350;2023-07-30T12:34:06;8.73;;;1.42;;
63965;SDS011;50151;52.030;5.350;2023-07-30T12:36:33;6.20;;;1.10;;
63965;SDS011;50151;52.030;5.350;2023-07-30T12:38:59;9.13;;;1.55;;
63965;SDS011;50151;52.030;5.350;2023-07-30T12:41:26;6.22;;;1.23;;
63965;SDS011;50151;52.030;5.350;2023-07-30T12:43:53;6.85;;;1.05;;
63965;SDS011;50151;52.030;5.350;2023-07-30T12:46:25;4.78;;;1.17;;
63965;SDS011;50151;52.030;5.350;2023-07-30T12:48:56;9.20;;;1.10;;
63965;SDS011;50151;52.030;5.350;2023-07-30T12:51:23;8.35;;;1.05;;
63965;SDS011;50151;52.030;5.350;2023-07-30T12:53:50;6.38;;;1.00;;
63965;SDS011;50151;52.030;5.350;2023-07-30T12:56:17;8.93;;;1.33;;
63965;SDS011;50151;52.030;5.350;2023-07-30T12:58:43;13.50;;;1.48;;
63965;SDS011;50151;52.030;5.350;2023-07-30T13:01:10;7.65;;;1.15;;
63965;SDS011;50151;52.030;5.350;2023-07-30T13:03:37;5.68;;;1.30;;
63965;SDS011;50151;52.030;5.350;2023-07-30T13:06:05;7.18;;;0.77;;
63965;SDS011;50151;52.030;5.350;2023-07-30T13:08:32;6.18;;;1.30;;
63965;SDS011;50151;52.030;5.350;2023-07-30T13:10:58;3.60;;;0.98;;
63965;SDS011;50151;52.030;5.350;2023-07-30T13:13:25;3.30;;;0.80;;
63965;SDS011;50151;52.030;5.350;2023-07-30T13:15:52;3.53;;;1.20;;
63965;SDS011;50151;52.030;5.350;2023-07-30T13:18:24;2.42;;;0.63;;
63965;SDS011;50151;52.030;5.350;2023-07-30T13:20:51;5.07;;;0.90;;
63965;SDS011;50151;52.030;5.350;2023-07-30T13:23:17;3.38;;;0.70;;
63965;SDS011;50151;52.030;5.350;2023-07-30T13:25:44;5.13;;;1.15;;
63965;SDS011;50151;52.030;5.350;2023-07-30T13:28:11;2.60;;;0.93;;
63965;SDS011;50151;52.030;5.350;2023-07-30T13:30:38;3.40;;;0.95;;
63965;SDS011;50151;52.030;5.350;2023-07-30T13:33:04;2.95;;;0.52;;
63965;SDS011;50151;52.030;5.350;2023-07-30T13:35:31;3.25;;;0.80;;
63965;SDS011;50151;52.030;5.350;2023-07-30T13:37:58;4.72;;;0.98;;
63965;SDS011;50151;52.030;5.350;2023-07-30T13:40:25;6.25;;;1.25;;
63965;SDS011;50151;52.030;5.350;2023-07-30T13:42:52;6.07;;;1.25;;
63965;SDS011;50151;52.030;5.350;2023-07-30T13:45:19;5.88;;;0.70;;
63965;SDS011;50151;52.030;5.350;2023-07-30T13:47:45;4.18;;;1.00;;
63965;SDS011;50151;52.030;5.350;2023-07-30T13:50:12;4.28;;;0.98;;
63965;SDS011;50151;52.030;5.350;2023-07-30T13:52:39;4.72;;;0.90;;
63965;SDS011;50151;52.030;5.350;2023-07-30T13:55:05;3.55;;;0.90;;
63965;SDS011;50151;52.030;5.350;2023-07-30T13:57:32;3.58;;;1.13;;
63965;SDS011;50151;52.030;5.350;2023-07-30T14:00:02;3.65;;;0.93;;
63965;SDS011;50151;52.030;5.350;2023-07-30T14:02:29;4.47;;;0.73;;
63965;SDS011;50151;52.030;5.350;2023-07-30T14:04:55;8.60;;;0.80;;
63965;SDS011;50151;52.030;5.350;2023-07-30T14:07:22;5.95;;;0.75;;
63965;SDS011;50151;52.030;5.350;2023-07-30T14:09:49;4.82;;;0.73;;
63965;SDS011;50151;52.030;5.350;2023-07-30T14:12:16;4.82;;;1.02;;
63965;SDS011;50151;52.030;5.350;2023-07-30T14:14:43;4.40;;;1.38;;
63965;SDS011;50151;52.030;5.350;2023-07-30T14:17:10;4.72;;;1.45;;
63965;SDS011;50151;52.030;5.350;2023-07-30T14:19:36;2.55;;;1.00;;
63965;SDS011;50151;52.030;5.350;2023-07-30T14:22:03;6.57;;;1.20;;
63965;SDS011;50151;52.030;5.350;2023-07-30T14:24:32;2.85;;;1.05;;
63965;SDS011;50151;52.030;5.350;2023-07-30T14:27:00;3.60;;;0.88;;
63965;SDS011;50151;52.030;5.350;2023-07-30T14:29:27;4.80;;;1.10;;
63965;SDS011;50151;52.030;5.350;2023-07-30T14:31:53;3.17;;;0.98;;
63965;SDS011;50151;52.030;5.350;2023-07-30T14:34:20;7.03;;;0.82;;
63965;SDS011;50151;52.030;5.350;2023-07-30T14:36:47;7.93;;;1.20;;
63965;SDS011;50151;52.030;5.350;2023-07-30T14:39:14;5.20;;;1.20;;
63965;SDS011;50151;52.030;5.350;2023-07-30T14:41:40;7.13;;;1.40;;
63965;SDS011;50151;52.030;5.350;2023-07-30T14:44:07;7.05;;;1.67;;
63965;SDS011;50151;52.030;5.350;2023-07-30T14:46:34;9.52;;;1.70;;
63965;SDS011;50151;52.030;5.350;2023-07-30T14:49:00;9.48;;;1.90;;
63965;SDS011;50151;52.030;5.350;2023-07-30T14:51:28;7.65;;;1.90;;
63965;SDS011;50151;52.030;5.350;2023-07-30T14:53:55;7.95;;;1.55;;
63965;SDS011;50151;52.030;5.350;2023-07-30T14:56:21;8.30;;;1.25;;
63965;SDS011;50151;52.030;5.350;2023-07-30T14:58:48;6.07;;;1.40;;
63965;SDS011;50151;52.030;5.350;2023-07-30T15:01:15;8.20;;;1.83;;
63965;SDS011;50151;52.030;5.350;2023-07-30T15:03:41;5.85;;;1.02;;
63965;SDS011;50151;52.030;5.350;2023-07-30T15:06:08;7.03;;;1.50;;
63965;SDS011;50151;52.030;5.350;2023-07-30T15:08:35;6.13;;;1.60;;
63965;SDS011;50151;52.030;5.350;2023-07-30T15:11:02;6.45;;;1.55;;
63965;SDS011;50151;52.030;5.350;2023-07-30T15:13:28;9.35;;;1.42;;
63965;SDS011;50151;52.030;5.350;2023-07-30T15:15:55;11.18;;;1.80;;
63965;SDS011;50151;52.030;5.350;2023-07-30T15:18:22;5.85;;;1.38;;
63965;SDS011;50151;52.030;5.350;2023-07-30T15:20:48;10.85;;;1.73;;
63965;SDS011;50151;52.030;5.350;2023-07-30T15:23:15;7.03;;;1.70;;
63965;SDS011;50151;52.030;5.350;2023-07-30T15:25:42;7.78;;;1.42;;
63965;SDS011;50151;52.030;5.350;2023-07-30T15:28:09;7.85;;;1.63;;
63965;SDS011;50151;52.030;5.350;2023-07-30T15:30:36;8.55;;;1.85;;
63965;SDS011;50151;52.030;5.350;2023-07-30T15:33:04;8.13;;;1.45;;
63965;SDS011;50151;52.030;5.350;2023-07-30T15:35:33;6.22;;;1.67;;
63965;SDS011;50151;52.030;5.350;2023-07-30T15:38:00;8.18;;;1.42;;
63965;SDS011;50151;52.030;5.350;2023-07-30T15:40:27;6.82;;;1.20;;
63965;SDS011;50151;52.030;5.350;2023-07-30T15:42:54;8.73;;;2.03;;
63965;SDS011;50151;52.030;5.350;2023-07-30T15:45:20;8.40;;;1.65;;
63965;SDS011;50151;52.030;5.350;2023-07-30T15:47:47;9.38;;;1.80;;
63965;SDS011;50151;52.030;5.350;2023-07-30T15:50:14;7.88;;;1.77;;
63965;SDS011;50151;52.030;5.350;2023-07-30T15:52:41;9.88;;;2.00;;
63965;SDS011;50151;52.030;5.350;2023-07-30T15:55:07;9.98;;;2.10;;
63965;SDS011;50151;52.030;5.350;2023-07-30T15:57:34;12.70;;;2.17;;
63965;SDS011;50151;52.030;5.350;2023-07-30T16:00:03;9.27;;;1.67;;
63965;SDS011;50151;52.030;5.350;2023-07-30T16:02:32;11.90;;;2.80;;
63965;SDS011;50151;52.030;5.350;2023-07-30T16:04:59;10.50;;;2.80;;
63965;SDS011;50151;52.030;5.350;2023-07-30T16:07:26;11.45;;;2.45;;
63965;SDS011;50151;52.030;5.350;2023-07-30T16:09:53;12.23;;;2.35;;
63965;SDS011;50151;52.030;5.350;2023-07-30T16:12:19;9.95;;;2.05;;
63965;SDS011;50151;52.030;5.350;2023-07-30T16:14:46;14.05;;;2.33;;
63965;SDS011;50151;52.030;5.350;2023-07-30T16:17:16;7.70;;;2.33;;
63965;SDS011;50151;52.030;5.350;2023-07-30T16:19:43;11.52;;;2.45;;
63965;SDS011;50151;52.030;5.350;2023-07-30T16:22:10;9.85;;;2.10;;
63965;SDS011;50151;52.030;5.350;2023-07-30T16:24:36;9.10;;;2.30;;
63965;SDS011;50151;52.030;5.350;2023-07-30T16:27:03;13.98;;;2.42;;
63965;SDS011;50151;52.030;5.350;2023-07-30T16:29:30;11.43;;;2.10;;
63965;SDS011;50151;52.030;5.350;2023-07-30T16:31:57;19.30;;;2.20;;
63965;SDS011;50151;52.030;5.350;2023-07-30T16:34:23;8.25;;;2.13;;
63965;SDS011;50151;52.030;5.350;2023-07-30T16:36:50;16.27;;;2.38;;
63965;SDS011;50151;52.030;5.350;2023-07-30T16:39:17;9.65;;;2.22;;
63965;SDS011;50151;52.030;5.350;2023-07-30T16:41:44;7.30;;;2.10;;
63965;SDS011;50151;52.030;5.350;2023-07-30T16:44:10;15.82;;;2.25;;
63965;SDS011;50151;52.030;5.350;2023-07-30T16:46:37;12.25;;;2.30;;
63965;SDS011;50151;52.030;5.350;2023-07-30T16:49:04;12.93;;;2.30;;
63965;SDS011;50151;52.030;5.350;2023-07-30T16:51:31;10.48;;;2.80;;
63965;SDS011;50151;52.030;5.350;2023-07-30T16:53:58;14.93;;;2.88;;
63965;SDS011;50151;52.030;5.350;2023-07-30T16:56:24;11.95;;;2.63;;
63965;SDS011;50151;52.030;5.350;2023-07-30T16:58:51;12.48;;;2.70;;
63965;SDS011;50151;52.030;5.350;2023-07-30T17:01:18;11.45;;;2.28;;
63965;SDS011;50151;52.030;5.350;2023-07-30T17:03:48;16.30;;;2.72;;
63965;SDS011;50151;52.030;5.350;2023-07-30T17:06:14;8.23;;;2.67;;
63965;SDS011;50151;52.030;5.350;2023-07-30T17:08:42;10.52;;;2.70;;
63965;SDS011;50151;52.030;5.350;2023-07-30T17:11:09;11.80;;;2.42;;
63965;SDS011;50151;52.030;5.350;2023-07-30T17:13:36;11.75;;;2.38;;
63965;SDS011;50151;52.030;5.350;2023-07-30T17:16:03;12.45;;;2.80;;
63965;SDS011;50151;52.030;5.350;2023-07-30T17:18:31;11.52;;;2.40;;
63965;SDS011;50151;52.030;5.350;2023-07-30T17:20:58;5.45;;;1.95;;
63965;SDS011;50151;52.030;5.350;2023-07-30T17:23:25;9.85;;;1.98;;
63965;SDS011;50151;52.030;5.350;2023-07-30T17:25:53;9.25;;;2.50;;
63965;SDS011;50151;52.030;5.350;2023-07-30T17:28:23;9.63;;;2.40;;
63965;SDS011;50151;52.030;5.350;2023-07-30T17:30:50;10.55;;;2.58;;
63965;SDS011;50151;52.030;5.350;2023-07-30T17:33:17;9.75;;;2.35;;
63965;SDS011;50151;52.030;5.350;2023-07-30T17:35:45;11.45;;;2.35;;
63965;SDS011;50151;52.030;5.350;2023-07-30T17:38:13;8.32;;;1.95;;
63965;SDS011;50151;52.030;5.350;2023-07-30T17:40:48;7.03;;;2.20;;
63965;SDS011;50151;52.030;5.350;2023-07-30T17:43:16;6.10;;;1.73;;
63965;SDS011;50151;52.030;5.350;2023-07-30T17:45:42;7.82;;;1.83;;
63965;SDS011;50151;52.030;5.350;2023-07-30T17:48:09;4.05;;;1.50;;
63965;SDS011;50151;52.030;5.350;2023-07-30T17:50:36;4.50;;;1.30;;
63965;SDS011;50151;52.030;5.350;2023-07-30T17:53:04;5.80;;;1.27;;
63965;SDS011;50151;52.030;5.350;2023-07-30T17:55:32;4.18;;;1.50;;
63965;SDS011;50151;52.030;5.350;2023-07-30T17:57:58;6.38;;;1.50;;
63965;SDS011;50151;52.030;5.350;2023-07-30T18:00:25;7.90;;;1.40;;
63965;SDS011;50151;52.030;5.350;2023-07-30T18:02:54;4.43;;;1.30;;
63965;SDS011;50151;52.030;5.350;2023-07-30T18:05:21;6.35;;;1.20;;
63965;SDS011;50151;52.030;5.350;2023-07-30T18:07:48;4.72;;;1.27;;
63965;SDS011;50151;52.030;5.350;2023-07-30T18:10:18;6.15;;;1.20;;
63965;SDS011;50151;52.030;5.350;2023-07-30T18:12:45;4.15;;;1.23;;
63965;SDS011;50151;52.030;5.350;2023-07-30T18:15:12;5.78;;;1.73;;
63965;SDS011;50151;52.030;5.350;2023-07-30T18:17:39;7.60;;;1.60;;
63965;SDS011;50151;52.030;5.350;2023-07-30T18:20:06;3.63;;;1.20;;
63965;SDS011;50151;52.030;5.350;2023-07-30T18:22:34;4.85;;;1.20;;
63965;SDS011;50151;52.030;5.350;2023-07-30T18:25:00;4.35;;;1.50;;
63965;SDS011;50151;52.030;5.350;2023-07-30T18:27:27;5.45;;;1.40;;
63965;SDS011;50151;52.030;5.350;2023-07-30T18:29:54;3.72;;;1.20;;
63965;SDS011;50151;52.030;5.350;2023-07-30T18:32:20;4.43;;;1.40;;
63965;SDS011;50151;52.030;5.350;2023-07-30T18:34:47;4.05;;;1.30;;
63965;SDS011;50151;52.030;5.350;2023-07-30T18:37:14;4.03;;;1.20;;
63965;SDS011;50151;52.030;5.350;2023-07-30T18:39:41;4.82;;;1.60;;
63965;SDS011;50151;52.030;5.350;2023-07-30T18:42:08;8.18;;;1.88;;
63965;SDS011;50151;52.030;5.350;2023-07-30T18:44:34;4.82;;;1.77;;
63965;SDS011;50151;52.030;5.350;2023-07-30T18:47:01;8.93;;;2.15;;
63965;SDS011;50151;52.030;5.350;2023-07-30T18:49:28;4.07;;;1.70;;
63965;SDS011;50151;52.030;5.350;2023-07-30T18:51:54;5.30;;;1.77;;
63965;SDS011;50151;52.030;5.350;2023-07-30T18:54:21;6.25;;;1.90;;
63965;SDS011;50151;52.030;5.350;2023-07-30T18:56:48;6.78;;;1.77;;
63965;SDS011;50151;52.030;5.350;2023-07-30T18:59:15;4.95;;;1.85;;
63965;SDS011;50151;52.030;5.350;2023-07-30T19:01:42;7.07;;;2.17;;
63965;SDS011;50151;52.030;5.350;2023-07-30T19:04:09;4.40;;;1.75;;
63965;SDS011;50151;52.030;5.350;2023-07-30T19:06:36;7.60;;;2.20;;
63965;SDS011;50151;52.030;5.350;2023-07-30T19:09:03;5.50;;;1.90;;
63965;SDS011;50151;52.030;5.350;2023-07-30T19:11:30;7.28;;;2.05;;
63965;SDS011;50151;52.030;5.350;2023-07-30T19:13:57;4.25;;;1.90;;
63965;SDS011;50151;52.030;5.350;2023-07-30T19:16:23;7.25;;;2.33;;
63965;SDS011;50151;52.030;5.350;2023-07-30T19:18:50;7.05;;;2.42;;
63965;SDS011;50151;52.030;5.350;2023-07-30T19:21:17;8.30;;;2.08;;
63965;SDS011;50151;52.030;5.350;2023-07-30T19:23:44;6.07;;;2.00;;
63965;SDS011;50151;52.030;5.350;2023-07-30T19:26:10;5.60;;;2.08;;
63965;SDS011;50151;52.030;5.350;2023-07-30T19:28:37;7.82;;;2.05;;
63965;SDS011;50151;52.030;5.350;2023-07-30T19:31:05;5.35;;;2.25;;
63965;SDS011;50151;52.030;5.350;2023-07-30T19:33:36;7.90;;;2.25;;
63965;SDS011;50151;52.030;5.350;2023-07-30T19:36:05;5.78;;;2.22;;
63965;SDS011;50151;52.030;5.350;2023-07-30T19:38:32;8.45;;;2.25;;
63965;SDS011;50151;52.030;5.350;2023-07-30T19:40:58;7.20;;;2.30;;
63965;SDS011;50151;52.030;5.350;2023-07-30T19:43:28;6.32;;;2.22;;
63965;SDS011;50151;52.030;5.350;2023-07-30T19:45:55;4.03;;;2.17;;
63965;SDS011;50151;52.030;5.350;2023-07-30T19:48:22;7.82;;;2.33;;
63965;SDS011;50151;52.030;5.350;2023-07-30T19:50:50;5.18;;;1.90;;
63965;SDS011;50151;52.030;5.350;2023-07-30T19:53:18;5.60;;;1.92;;
63965;SDS011;50151;52.030;5.350;2023-07-30T19:55:46;6.95;;;1.73;;
63965;SDS011;50151;52.030;5.350;2023-07-30T19:58:24;3.33;;;1.95;;
63965;SDS011;50151;52.030;5.350;2023-07-30T20:00:56;5.18;;;2.00;;
63965;SDS011;50151;52.030;5.350;2023-07-30T20:03:24;2.47;;;1.15;;
63965;SDS011;50151;52.030;5.350;2023-07-30T20:05:52;4.25;;;1.67;;
63965;SDS011;50151;52.030;5.350;2023-07-30T20:08:23;4.07;;;1.63;;
63965;SDS011;50151;52.030;5.350;2023-07-30T20:10:53;4.55;;;1.40;;
63965;SDS011;50151;52.030;5.350;2023-07-30T20:13:20;3.30;;;1.52;;
63965;SDS011;50151;52.030;5.350;2023-07-30T20:15:48;2.80;;;1.38;;
63965;SDS011;50151;52.030;5.350;2023-07-30T20:18:16;3.38;;;1.33;;
63965;SDS011;50151;52.030;5.350;2023-07-30T20:20:43;2.88;;;1.52;;
63965;SDS011;50151;52.030;5.350;2023-07-30T20:23:10;3.97;;;1.40;;
63965;SDS011;50151;52.030;5.350;2023-07-30T20:25:37;3.17;;;1.33;;
63965;SDS011;50151;52.030;5.350;2023-07-30T20:28:06;4.32;;;1.70;;
63965;SDS011;50151;52.030;5.350;2023-07-30T20:30:34;6.50;;;1.35;;
63965;SDS011;50151;52.030;5.350;2023-07-30T20:33:02;3.40;;;1.60;;
63965;SDS011;50151;52.030;5.350;2023-07-30T20:35:29;2.30;;;1.40;;
63965;SDS011;50151;52.030;5.350;2023-07-30T20:37:57;2.83;;;1.30;;
63965;SDS011;50151;52.030;5.350;2023-07-30T20:40:24;4.05;;;1.25;;
63965;SDS011;50151;52.030;5.350;2023-07-30T20:42:51;2.72;;;1.10;;
63965;SDS011;50151;52.030;5.350;2023-07-30T20:45:19;2.15;;;1.20;;
63965;SDS011;50151;52.030;5.350;2023-07-30T20:47:47;2.17;;;1.30;;
63965;SDS011;50151;52.030;5.350;2023-07-30T20:50:14;1.83;;;1.10;;
63965;SDS011;50151;52.030;5.350;2023-07-30T20:52:42;2.17;;;1.20;;
63965;SDS011;50151;52.030;5.350;2023-07-30T20:55:13;3.17;;;1.05;;
63965;SDS011;50151;52.030;5.350;2023-07-30T20:57:41;2.03;;;1.20;;
63965;SDS011;50151;52.030;5.350;2023-07-30T21:00:08;2.60;;;1.40;;
63965;SDS011;50151;52.030;5.350;2023-07-30T21:02:36;2.50;;;1.25;;
63965;SDS011;50151;52.030;5.350;2023-07-30T21:05:04;5.22;;;1.27;;
63965;SDS011;50151;52.030;5.350;2023-07-30T21:07:31;1.95;;;1.20;;
63965;SDS011;50151;52.030;5.350;2023-07-30T21:09:57;2.55;;;1.42;;
63965;SDS011;50151;52.030;5.350;2023-07-30T21:12:24;3.20;;;1.25;;
63965;SDS011;50151;52.030;5.350;2023-07-30T21:14:51;1.65;;;1.00;;
63965;SDS011;50151;52.030;5.350;2023-07-30T21:17:18;3.05;;;1.40;;
63965;SDS011;50151;52.030;5.350;2023-07-30T21:19:46;3.40;;;1.10;;
